Latest Weather Observations for Cape Borda

IDS60801

Issued at 9:01 pm CST Sunday 26 June 2016 (issued every 30 minutes, with the page automatically refreshed every 10 minutes)

About weather observations | Map of weather stations | Latest weather observations for SA | Other Formats
Station Details ID: 022823 Name: CAPE BORDA Lat: -35.75 Lon: 136.60 Height: 158.0 m
Data from the previous 72 hours. | See also: Recent months at Cape Borda
Date/Time
CST
Temp
°C
App
Temp
°C
Dew
Point
°C
Rel
Hum
%
Delta-T
°C
Wind Press
QNH
hPa
Press
MSL
hPa
Rain since
9am
mm
Dir  Spd
km/h
Gust
km/h
Spd
kts
Gust
kts
26/09:00pm 10.0 7.4 9.4 96 0.3 S 13 19 7 10 1015.6 1015.6 -
26/08:30pm 10.1 7.9 9.3 95 0.4 S 11 15 6 8 1015.4 - -
26/08:00pm 10.7 6.8 9.5 92 0.6 WSW 20 30 11 16 1015.5 - -
26/07:30pm 10.8 7.4 9.2 90 0.8 W 17 22 9 12 1015.0 - -
26/07:00pm 11.0 8.6 10.0 93 0.5 W 13 20 7 11 1014.8 - -
26/06:30pm 10.7 8.8 8.9 89 0.9 WSW 9 15 5 8 1014.6 - -
26/06:00pm 10.5 7.8 8.9 90 0.8 W 13 17 7 9 1014.3 1014.3 -
26/05:30pm 10.9 8.8 9.9 93 0.5 NW 11 24 6 13 1013.9 - -
26/05:00pm 11.0 9.0 10.2 95 0.4 NNW 11 17 6 9 1014.0 - -
26/04:30pm 10.4 8.3 9.6 95 0.4 NNE 11 17 6 9 1013.8 - -
26/04:00pm 10.0 6.6 9.2 95 0.4 N 17 22 9 12 1013.8 - -
26/03:30pm 10.5 6.5 9.1 91 0.7 NNW 20 32 11 17 1013.8 - -
26/03:00pm 11.6 6.6 7.9 78 1.8 NW 24 33 13 18 1013.7 1013.8 -
26/02:30pm 12.0 7.7 7.7 75 2.1 NNW 20 32 11 17 1013.6 - -
26/02:00pm 12.3 6.6 6.9 69 2.6 NW 26 33 14 18 1013.7 - -
26/01:30pm 11.2 6.5 7.9 80 1.6 NW 22 33 12 18 1014.2 - -
26/01:00pm 12.3 7.6 6.0 65 3.0 NW 20 35 11 19 1014.6 - -
26/12:30pm 12.8 7.9 5.3 60 3.5 NNW 20 33 11 18 1014.7 - -
26/12:00pm 12.3 7.1 5.5 63 3.2 NNW 22 30 12 16 1015.2 1015.2 -
26/11:30am 12.3 7.4 5.2 62 3.3 NNW 20 28 11 15 1015.6 - -
26/11:00am 12.1 6.8 5.0 62 3.3 NNW 22 30 12 16 1016.0 - -
26/09:30am 11.6 5.8 4.6 62 3.2 NNW 24 35 13 19 1016.3 - 0.0
26/09:00am 11.1 6.2 5.2 67 2.7 NNW 20 32 11 17 1016.2 1016.2 7.4
26/08:30am 10.6 5.1 4.1 64 2.9 NW 22 33 12 18 1016.1 - 7.4
26/08:00am 10.8 5.4 4.6 65 2.8 NW 22 30 12 16 1016.0 - 7.4
26/07:30am 10.8 5.7 4.1 63 3.0 NNW 20 30 11 16 1015.9 - 7.4
26/07:00am 10.6 5.7 4.9 68 2.6 NNW 20 28 11 15 1015.9 - 7.4
26/06:30am 10.1 5.7 6.7 79 1.6 N 19 26 10 14 1015.9 - 7.4
26/06:00am 9.5 5.7 7.6 88 0.9 NNE 17 24 9 13 1016.0 1016.0 7.4
26/05:30am 9.8 5.3 6.8 81 1.4 NNW 20 30 11 16 1016.0 - 7.4
26/05:00am 9.5 5.1 7.4 87 1.0 NNW 20 28 11 15 1016.1 - 7.4
26/04:30am 9.5 4.9 8.1 91 0.7 NNW 22 37 12 20 1016.2 - 6.4
26/04:00am 9.7 4.3 7.8 88 0.9 NNW 26 35 14 19 1016.4 - 6.2
26/03:30am 9.8 5.3 8.6 92 0.6 NNW 22 35 12 19 1016.6 - 6.2
26/03:00am 9.6 4.0 8.6 93 0.5 N 28 33 15 18 1016.9 1017.0 3.0
26/02:30am 10.2 5.1 7.5 83 1.3 N 24 37 13 20 1016.9 - 2.4
26/02:00am 9.7 5.6 7.8 88 0.9 N 19 26 10 14 1017.2 - 2.4
26/01:30am 9.8 4.5 8.6 92 0.6 N 26 41 14 22 1017.5 - 2.2
26/01:00am 10.6 5.1 9.0 90 0.8 N 28 41 15 22 1017.3 - 2.2
26/12:30am 10.7 5.4 8.5 86 1.1 N 26 39 14 21 1017.5 - 1.8
26/12:00am 10.6 4.5 8.1 84 1.2 NNW 30 41 16 22 1017.9 1018.0 1.6
 
Date/Time
CST
Temp
°C
App
Temp
°C
Dew
Point
°C
Rel
Hum
%
Delta-T
°C
Wind Press
QNH
hPa
Press
MSL
hPa
Rain since
9am
mm
Dir  Spd
km/h
Gust
km/h
Spd
kts
Gust
kts
25/11:30pm 11.6 6.7 5.1 64 3.0 N 20 30 11 16 1018.1 - 1.6
25/11:00pm 11.0 5.9 4.1 62 3.1 N 20 30 11 16 1018.3 - 1.6
25/10:30pm 11.2 5.8 4.3 62 3.1 N 22 32 12 17 1018.6 - 1.6
25/10:00pm 11.1 5.2 3.7 60 3.3 N 24 33 13 18 1018.7 - 1.6
25/09:30pm 10.8 5.8 3.8 62 3.1 N 19 28 10 15 1018.7 - 1.6
25/09:00pm 10.7 5.5 3.4 60 3.2 N 20 26 11 14 1018.9 1019.0 1.6
25/08:30pm 10.9 5.9 3.7 61 3.2 N 19 32 10 17 1019.1 - 1.6
25/08:00pm 11.1 5.1 3.1 58 3.5 N 24 33 13 18 1019.5 - 1.6
25/07:30pm 11.1 5.5 3.4 59 3.4 N 22 33 12 18 1019.7 - 1.6
25/07:00pm 11.0 4.2 3.3 59 3.4 N 28 41 15 22 1019.9 - 1.6
25/06:30pm 10.9 5.0 3.7 61 3.2 N 24 35 13 19 1019.7 - 1.6
25/06:00pm 10.8 4.9 3.8 62 3.1 N 24 41 13 22 1019.5 1019.6 1.6
25/05:30pm 10.9 4.7 4.2 63 3.0 N 26 39 14 21 1019.5 - 1.6
25/05:00pm 11.2 5.9 4.9 65 2.9 N 22 30 12 16 1019.6 - 1.6
25/04:30pm 11.8 6.1 5.1 63 3.1 N 24 32 13 17 1019.6 - 1.6
25/04:00pm 12.4 7.2 5.3 62 3.3 N 22 32 12 17 1019.7 - 1.6
25/03:30pm 12.7 7.4 4.9 59 3.6 N 22 33 12 18 1019.9 - 1.6
25/03:00pm 13.1 8.3 5.4 59 3.6 NNW 20 28 11 15 1020.1 1020.2 1.6
25/02:30pm 13.2 8.4 5.8 61 3.5 N 20 30 11 16 1020.3 - 1.6
25/02:00pm 12.3 7.8 6.2 66 2.9 NNW 19 26 10 14 1020.8 - 1.6
25/01:30pm 12.7 8.0 5.9 63 3.2 NNW 20 26 11 14 1021.0 - 1.6
25/01:00pm 13.1 8.6 6.2 63 3.3 NNW 19 24 10 13 1021.5 - 1.6
25/12:30pm 12.3 8.1 7.6 73 2.3 NNW 19 24 10 13 1021.9 - 1.6
25/12:00pm 11.1 8.0 8.7 85 1.2 N 15 26 8 14 1022.5 1022.6 1.6
25/11:30am 10.5 7.9 9.3 92 0.6 NE 13 19 7 10 1022.8 - 1.6
25/11:00am 10.6 6.9 9.4 92 0.6 NE 19 26 10 14 1023.1 - 1.6
25/10:30am 10.4 7.4 9.2 92 0.6 NE 15 20 8 11 1023.3 - 1.6
25/10:00am 10.6 8.1 9.8 95 0.4 NE 13 19 7 10 1023.2 - 1.4
25/09:30am 9.6 6.9 9.0 96 0.3 N 13 20 7 11 1023.2 - 1.4
25/09:00am 9.5 5.9 8.5 93 0.5 NW 17 24 9 13 1023.2 1023.3 1.8
25/08:30am 9.6 5.6 8.2 91 0.7 N 19 30 10 16 1023.1 - 1.8
25/08:00am 10.1 6.5 8.3 88 0.9 N 17 26 9 14 1022.9 - 1.8
25/07:30am 8.5 6.6 7.7 95 0.4 ENE 7 15 4 8 1022.8 - 1.8
25/07:00am 8.9 6.4 8.1 95 0.4 E 11 15 6 8 1022.6 - 1.6
25/06:30am 8.9 5.9 7.9 93 0.5 ENE 13 19 7 10 1022.5 - 1.6
25/06:00am 8.3 4.8 7.0 91 0.6 ENE 15 15 8 8 1022.3 1022.4 1.6
25/05:30am 8.6 5.4 6.9 89 0.8 NE 13 17 7 9 1022.2 - 1.6
25/05:00am 8.6 5.7 6.7 88 0.9 ENE 11 13 6 7 1022.2 - 1.6
25/04:30am 8.8 5.8 6.0 82 1.3 NE 11 15 6 8 1022.3 - 1.6
25/04:00am 8.6 5.6 6.0 84 1.2 NNE 11 13 6 7 1022.3 - 1.6
25/03:30am 8.3 5.2 5.7 84 1.2 NE 11 13 6 7 1022.3 - 1.6
25/03:00am 7.4 3.9 5.6 88 0.8 E 13 15 7 8 1022.2 1022.3 1.6
25/02:30am 6.8 3.6 5.2 89 0.7 ESE 11 13 6 7 1022.3 - 1.6
25/02:00am 6.6 3.0 5.2 91 0.6 ESE 13 15 7 8 1022.3 - 1.6
25/01:30am 6.4 2.5 5.5 94 0.4 ESE 15 17 8 9 1022.4 - 1.4
25/01:00am 6.8 3.4 5.7 93 0.5 ESE 13 15 7 8 1022.4 - 1.4
25/12:30am 7.2 4.2 6.1 93 0.5 ESE 11 13 6 7 1022.4 - 1.4
25/12:00am 7.9 4.7 7.0 94 0.4 ESE 13 15 7 8 1022.3 1022.4 1.4
 
Date/Time
CST
Temp
°C
App
Temp
°C
Dew
Point
°C
Rel
Hum
%
Delta-T
°C
Wind Press
QNH
hPa
Press
MSL
hPa
Rain since
9am
mm
Dir  Spd
km/h
Gust
km/h
Spd
kts
Gust
kts
24/11:30pm 8.4 6.1 7.6 95 0.4 SSE 9 15 5 8 1022.4 - 1.4
24/11:00pm 8.3 5.7 7.7 96 0.3 SSE 11 13 6 7 1022.6 - 1.4
24/10:30pm 7.9 3.9 6.8 93 0.5 SSE 17 20 9 11 1022.4 - 1.2
24/10:00pm 8.4 5.1 6.5 88 0.9 SSE 13 19 7 10 1022.3 - 1.2
24/09:30pm 8.2 5.2 5.8 85 1.1 S 11 15 6 8 1022.2 - 1.2
24/09:00pm 7.9 4.8 5.7 86 1.0 S 11 17 6 9 1022.1 1022.2 1.2
24/08:30pm 7.4 4.0 6.1 91 0.6 SSE 13 13 7 7 1022.1 - 1.2
24/08:00pm 7.7 4.8 6.6 93 0.5 SSE 11 13 6 7 1021.9 - 1.2
24/07:30pm 8.5 4.1 7.2 91 0.6 S 20 26 11 14 1021.6 - 1.2
24/07:00pm 8.0 4.2 5.8 86 1.0 S 15 17 8 9 1021.1 - 0.8
24/06:30pm 8.9 4.4 6.8 87 1.0 S 20 28 11 15 1020.6 - 0.8
24/06:00pm 8.5 4.8 6.1 85 1.1 SSE 15 20 8 11 1020.1 1020.2 0.8
24/05:30pm 9.5 5.4 6.0 79 1.6 S 17 22 9 12 1019.5 - 0.8
24/05:00pm 10.2 5.4 4.4 67 2.6 SSW 19 26 10 14 1019.1 - 0.8
24/04:30pm 10.5 5.2 5.0 69 2.5 SSW 22 32 12 17 1018.8 - 0.8
24/04:00pm 10.6 5.8 5.6 71 2.3 S 20 33 11 18 1018.4 - 0.8
24/03:30pm 10.7 6.3 7.2 79 1.7 S 20 26 11 14 1018.0 - 0.8
24/03:11pm 10.1 4.1 6.9 80 1.5 SSW 28 52 15 28 1017.7 - 0.8
24/03:00pm 10.1 4.8 6.9 80 1.5 SW 24 35 13 19 1017.7 1017.8 0.8
24/02:30pm 11.0 5.5 5.9 71 2.4 SSW 24 33 13 18 1017.4 - 0.8
24/02:00pm 12.2 5.6 4.3 58 3.6 SSW 28 41 15 22 1017.2 - 0.8
24/01:30pm 9.5 2.3 6.0 79 1.6 SSW 33 52 18 28 1017.1 - 0.8
24/01:23pm 9.7 2.8 6.3 79 1.6 SSW 32 52 17 28 1017.1 - 0.6
24/01:00pm 11.9 5.0 4.4 60 3.4 SW 30 44 16 24 1017.0 - 0.6
24/12:54pm 11.5 4.1 3.9 59 3.4 SW 32 50 17 27 1017.0 - 0.6
24/12:30pm 10.7 3.0 5.3 69 2.5 SSW 35 46 19 25 1016.8 - 0.6
24/12:02pm 10.7 4.1 4.2 64 2.9 SW 28 46 15 25 1017.0 - 0.6
24/12:00pm 10.8 4.3 4.6 65 2.8 SW 28 43 15 23 1017.0 1017.1 0.6
24/11:41am 11.5 5.0 4.7 63 3.1 SW 28 48 15 26 1016.9 - 0.6
24/11:30am 11.4 3.3 3.0 56 3.7 SW 35 46 19 25 1016.8 - 0.6
24/11:08am 10.8 2.7 3.0 58 3.4 SW 35 54 19 29 1016.6 - 0.6
24/11:00am 11.9 3.2 2.2 51 4.2 SW 37 50 20 27 1016.5 - 0.6
24/10:30am 10.6 2.7 4.4 65 2.8 SSW 35 57 19 31 1016.0 - 0.6
24/10:12am 10.7 2.8 4.3 64 2.9 SW 35 56 19 30 1015.8 - 0.6
24/10:00am 9.8 1.7 3.4 64 2.8 SW 35 50 19 27 1015.6 - 0.6
24/09:30am 7.8 -0.3 5.1 83 1.2 SW 37 65 20 35 1015.3 - 0.4
24/09:13am 8.6 -0.9 4.1 73 2.0 SW 43 74 23 40 1014.7 - 0.0
24/09:00am 9.6 1.1 0.9 54 3.6 SW 35 56 19 30 1014.2 1014.2 10.8
24/08:30am 9.6 0.3 0.6 53 3.7 SW 39 57 21 31 1013.6 - 10.8
24/08:01am 9.5 -1.0 -2.3 43 4.5 SW 43 61 23 33 1012.7 - 10.8
24/08:00am 9.5 -1.2 -2.3 43 4.5 SW 44 61 24 33 1012.6 - 10.8
24/07:31am 9.3 -0.2 1.7 59 3.2 SSW 41 61 22 33 1011.9 - 10.8
24/07:30am 9.2 -0.4 1.2 57 3.3 SSW 41 57 22 31 1011.9 - 10.8
24/07:00am 9.3 -2.0 -1.1 48 4.1 SW 48 67 26 36 1011.4 - 10.8
24/06:30am 9.3 -1.7 0.5 54 3.6 SW 48 69 26 37 1010.6 - 10.8
24/06:00am 8.8 -0.5 2.7 65 2.6 SW 41 59 22 32 1010.2 1010.2 10.8
24/05:30am 7.9 -2.1 2.2 67 2.4 SW 44 63 24 34 1009.7 - 10.8
24/05:00am 6.6 -3.9 3.8 82 1.2 SW 48 76 26 41 1009.4 - 10.8
24/04:32am 8.7 -1.4 0.6 57 3.3 SW 43 61 23 33 1008.8 - 10.0
24/04:30am 8.7 -1.6 0.6 57 3.3 SW 44 61 24 33 1008.7 - 10.0
24/04:01am 8.3 -1.0 5.0 80 1.5 WSW 43 65 23 35 1008.1 - 10.0
24/04:00am 8.0 -1.3 4.9 81 1.4 WSW 43 59 23 32 1008.1 - 10.0
24/03:40am 7.0 -4.1 4.3 83 1.2 SW 52 70 28 38 1008.2 - 9.8
24/03:39am 7.2 -4.8 4.5 83 1.2 SSW 57 70 31 38 1008.2 - 9.8
24/03:30am 7.6 -1.2 3.7 76 1.7 WSW 39 61 21 33 1008.1 - 9.8
24/03:00am 8.2 -2.4 0.5 58 3.1 SW 46 69 25 37 1007.7 1007.7 9.6
24/02:30am 8.0 -1.9 2.6 69 2.3 SW 44 70 24 38 1007.0 - 9.6
24/02:00am 8.4 -0.8 3.3 70 2.2 SW 41 67 22 36 1006.5 - 9.0
24/01:30am 9.8 -2.1 -2.8 41 4.8 SW 50 76 27 41 1005.7 - 8.6
24/01:02am 8.7 -2.6 1.5 60 3.0 SW 50 72 27 39 1005.5 - 8.6
24/01:00am 8.7 -3.0 1.2 59 3.1 SW 52 69 28 37 1005.5 - 8.6
24/12:35am 8.0 -0.6 4.6 79 1.5 SW 39 57 21 31 1005.4 - 8.4
24/12:30am 7.6 -1.4 4.7 82 1.3 SW 41 57 22 31 1005.5 - 8.4
24/12:00am 8.4 -1.8 5.3 81 1.4 WSW 48 74 26 40 1005.2 1005.2 8.0
 
Date/Time
CST
Temp
°C
App
Temp
°C
Dew
Point
°C
Rel
Hum
%
Delta-T
°C
Wind Press
QNH
hPa
Press
MSL
hPa
Rain since
9am
mm
Dir  Spd
km/h
Gust
km/h
Spd
kts
Gust
kts
23/11:30pm 7.6 -3.2 6.1 90 0.7 WSW 52 78 28 42 1005.1 - 7.0
23/11:29pm 8.0 -2.1 5.8 86 1.0 SW 48 69 26 37 1005.0 - 6.6
23/11:28pm 8.2 -2.4 5.3 82 1.3 SW 50 67 27 36 1005.0 - 6.4
23/11:11pm 8.9 -0.8 3.9 71 2.2 W 44 65 24 35 1004.8 - 6.4
23/11:00pm 8.5 -2.4 3.4 70 2.2 W 50 61 27 33 1004.8 - 6.4
23/10:32pm 8.2 0.3 4.6 78 1.6 W 35 69 19 37 1005.2 - 4.8
23/10:30pm 8.4 1.0 4.1 74 1.9 W 32 50 17 27 1005.2 - 4.8
23/10:29pm 8.4 0.9 3.6 72 2.1 W 32 50 17 27 1005.2 - 4.8
23/10:00pm 8.4 -1.7 3.6 72 2.1 SW 46 67 25 36 1004.7 - 4.4
23/09:59pm 8.5 -1.6 3.7 72 2.1 SW 46 67 25 36 1004.7 - 4.4
23/09:30pm 10.6 0.8 2.0 55 3.7 W 43 69 23 37 1004.2 - 4.4

Other Formats:

Comma delimited format used in spreadsheet applications
http://www.bom.gov.au/fwo/IDS60801/IDS60801.95805.axf

JavaScript Object Notation format (JSON) in row-major order
http://www.bom.gov.au/fwo/IDS60801/IDS60801.95805.json